sensor_id;sensor_type;location;lat;lon;timestamp;temperature;humidity
7296;DHT22;40758;54.038;11.684;2022-11-06T00:00:38;8.40;99.90
7296;DHT22;40758;54.038;11.684;2022-11-06T00:03:08;8.30;99.90
7296;DHT22;40758;54.038;11.684;2022-11-06T00:05:39;8.40;99.90
7296;DHT22;40758;54.038;11.684;2022-11-06T00:08:33;8.40;99.90
7296;DHT22;40758;54.038;11.684;2022-11-06T00:11:10;8.30;99.90
7296;DHT22;40758;54.038;11.684;2022-11-06T00:13:41;8.30;99.90
7296;DHT22;40758;54.038;11.684;2022-11-06T00:16:11;8.20;99.90
7296;DHT22;40758;54.038;11.684;2022-11-06T00:18:41;8.30;99.90
7296;DHT22;40758;54.038;11.684;2022-11-06T00:21:11;8.20;99.90
7296;DHT22;40758;54.038;11.684;2022-11-06T00:23:43;8.20;99.90
7296;DHT22;40758;54.038;11.684;2022-11-06T00:26:16;8.20;99.90
7296;DHT22;40758;54.038;11.684;2022-11-06T00:28:47;8.20;99.90
7296;DHT22;40758;54.038;11.684;2022-11-06T00:31:18;8.30;99.90
7296;DHT22;40758;54.038;11.684;2022-11-06T00:33:48;8.30;99.90
7296;DHT22;40758;54.038;11.684;2022-11-06T00:36:20;8.40;99.90
7296;DHT22;40758;54.038;11.684;2022-11-06T00:38:50;8.40;99.90
7296;DHT22;40758;54.038;11.684;2022-11-06T00:41:22;8.50;99.90
7296;DHT22;40758;54.038;11.684;2022-11-06T00:43:53;8.50;99.90
7296;DHT22;40758;54.038;11.684;2022-11-06T00:46:23;8.50;99.90
7296;DHT22;40758;54.038;11.684;2022-11-06T00:48:53;8.50;99.90
7296;DHT22;40758;54.038;11.684;2022-11-06T00:51:25;8.60;99.90
7296;DHT22;40758;54.038;11.684;2022-11-06T00:53:56;8.50;99.90
7296;DHT22;40758;54.038;11.684;2022-11-06T00:56:29;8.60;99.90
7296;DHT22;40758;54.038;11.684;2022-11-06T00:58:59;8.60;99.90
7296;DHT22;40758;54.038;11.684;2022-11-06T01:01:30;8.50;99.90
7296;DHT22;40758;54.038;11.684;2022-11-06T01:04:02;8.50;99.90
7296;DHT22;40758;54.038;11.684;2022-11-06T01:06:34;8.50;99.90
7296;DHT22;40758;54.038;11.684;2022-11-06T01:09:05;8.40;99.90
7296;DHT22;40758;54.038;11.684;2022-11-06T01:11:38;8.50;99.90
7296;DHT22;40758;54.038;11.684;2022-11-06T01:14:28;8.40;99.90
7296;DHT22;40758;54.038;11.684;2022-11-06T01:17:03;8.40;99.90
7296;DHT22;40758;54.038;11.684;2022-11-06T01:19:32;8.50;99.90
7296;DHT22;40758;54.038;11.684;2022-11-06T01:22:01;8.50;99.90
7296;DHT22;40758;54.038;11.684;2022-11-06T01:24:30;8.40;99.90
7296;DHT22;40758;54.038;11.684;2022-11-06T01:27:00;8.40;99.90
7296;DHT22;40758;54.038;11.684;2022-11-06T01:29:49;8.40;99.90
7296;DHT22;40758;54.038;11.684;2022-11-06T01:32:18;8.30;99.90
7296;DHT22;40758;54.038;11.684;2022-11-06T01:34:49;8.30;99.90
7296;DHT22;40758;54.038;11.684;2022-11-06T01:37:18;8.30;99.90
7296;DHT22;40758;54.038;11.684;2022-11-06T01:39:48;8.30;99.90
7296;DHT22;40758;54.038;11.684;2022-11-06T01:42:20;8.30;99.90
7296;DHT22;40758;54.038;11.684;2022-11-06T01:45:28;8.30;99.90
7296;DHT22;40758;54.038;11.684;2022-11-06T01:48:02;8.30;99.90
7296;DHT22;40758;54.038;11.684;2022-11-06T01:50:32;8.30;99.90
7296;DHT22;40758;54.038;11.684;2022-11-06T01:53:02;8.20;99.90
7296;DHT22;40758;54.038;11.684;2022-11-06T01:55:35;8.20;99.90
7296;DHT22;40758;54.038;11.684;2022-11-06T01:58:17;8.20;99.90
7296;DHT22;40758;54.038;11.684;2022-11-06T02:00:48;8.30;99.90
7296;DHT22;40758;54.038;11.684;2022-11-06T02:03:18;8.30;99.90
7296;DHT22;40758;54.038;11.684;2022-11-06T02:05:47;8.40;99.90
7296;DHT22;40758;54.038;11.684;2022-11-06T02:08:19;8.50;99.90
7296;DHT22;40758;54.038;11.684;2022-11-06T02:10:48;8.50;99.90
7296;DHT22;40758;54.038;11.684;2022-11-06T02:13:29;8.60;99.90
7296;DHT22;40758;54.038;11.684;2022-11-06T02:16:11;8.60;99.90
7296;DHT22;40758;54.038;11.684;2022-11-06T02:19:10;8.70;99.90
7296;DHT22;40758;54.038;11.684;2022-11-06T02:22:17;8.70;99.90
7296;DHT22;40758;54.038;11.684;2022-11-06T02:25:15;8.70;99.90
7296;DHT22;40758;54.038;11.684;2022-11-06T02:27:59;8.70;99.90
7296;DHT22;40758;54.038;11.684;2022-11-06T02:30:38;8.60;99.90
7296;DHT22;40758;54.038;11.684;2022-11-06T02:33:14;8.50;99.90
7296;DHT22;40758;54.038;11.684;2022-11-06T02:35:50;8.50;99.90
7296;DHT22;40758;54.038;11.684;2022-11-06T02:38:26;8.40;99.90
7296;DHT22;40758;54.038;11.684;2022-11-06T02:41:02;8.40;99.90
7296;DHT22;40758;54.038;11.684;2022-11-06T02:43:38;8.40;99.90
7296;DHT22;40758;54.038;11.684;2022-11-06T02:46:14;8.40;99.90
7296;DHT22;40758;54.038;11.684;2022-11-06T02:48:49;8.40;99.90
7296;DHT22;40758;54.038;11.684;2022-11-06T02:51:27;8.30;99.90
7296;DHT22;40758;54.038;11.684;2022-11-06T02:54:01;8.20;99.90
7296;DHT22;40758;54.038;11.684;2022-11-06T02:56:37;8.10;99.90
7296;DHT22;40758;54.038;11.684;2022-11-06T02:59:13;8.00;99.90
7296;DHT22;40758;54.038;11.684;2022-11-06T03:01:48;7.90;99.90
7296;DHT22;40758;54.038;11.684;2022-11-06T03:04:22;7.90;99.90
7296;DHT22;40758;54.038;11.684;2022-11-06T03:07:05;7.90;99.90
7296;DHT22;40758;54.038;11.684;2022-11-06T03:09:38;7.90;99.90
7296;DHT22;40758;54.038;11.684;2022-11-06T03:12:13;7.90;99.90
7296;DHT22;40758;54.038;11.684;2022-11-06T03:14:54;8.00;99.90
7296;DHT22;40758;54.038;11.684;2022-11-06T03:17:34;8.00;99.90
7296;DHT22;40758;54.038;11.684;2022-11-06T03:20:17;8.00;99.90
7296;DHT22;40758;54.038;11.684;2022-11-06T03:22:53;8.00;99.90
7296;DHT22;40758;54.038;11.684;2022-11-06T03:25:30;8.00;99.90
7296;DHT22;40758;54.038;11.684;2022-11-06T03:28:07;8.00;99.90
7296;DHT22;40758;54.038;11.684;2022-11-06T03:30:49;8.00;99.90
7296;DHT22;40758;54.038;11.684;2022-11-06T03:33:29;8.00;99.90
7296;DHT22;40758;54.038;11.684;2022-11-06T03:36:06;8.00;99.90
7296;DHT22;40758;54.038;11.684;2022-11-06T03:38:43;8.00;99.90
7296;DHT22;40758;54.038;11.684;2022-11-06T03:41:21;8.10;99.90
7296;DHT22;40758;54.038;11.684;2022-11-06T03:43:55;8.10;99.90
7296;DHT22;40758;54.038;11.684;2022-11-06T03:46:31;8.10;99.90
7296;DHT22;40758;54.038;11.684;2022-11-06T03:49:07;8.20;99.90
7296;DHT22;40758;54.038;11.684;2022-11-06T03:51:44;8.10;99.90
7296;DHT22;40758;54.038;11.684;2022-11-06T03:54:20;8.10;99.90
7296;DHT22;40758;54.038;11.684;2022-11-06T03:56:56;8.10;99.90
7296;DHT22;40758;54.038;11.684;2022-11-06T03:59:34;8.00;99.90
7296;DHT22;40758;54.038;11.684;2022-11-06T04:02:09;8.10;99.90
7296;DHT22;40758;54.038;11.684;2022-11-06T04:04:45;8.10;99.90
7296;DHT22;40758;54.038;11.684;2022-11-06T04:07:20;8.10;99.90
7296;DHT22;40758;54.038;11.684;2022-11-06T04:09:56;8.10;99.90
7296;DHT22;40758;54.038;11.684;2022-11-06T04:13:00;8.10;99.90
7296;DHT22;40758;54.038;11.684;2022-11-06T04:15:51;8.20;99.90
7296;DHT22;40758;54.038;11.684;2022-11-06T04:18:22;8.20;99.90
7296;DHT22;40758;54.038;11.684;2022-11-06T04:20:59;8.20;99.90
7296;DHT22;40758;54.038;11.684;2022-11-06T04:24:03;8.20;99.90
7296;DHT22;40758;54.038;11.684;2022-11-06T04:27:19;8.20;99.90
7296;DHT22;40758;54.038;11.684;2022-11-06T04:30:06;8.20;99.90
7296;DHT22;40758;54.038;11.684;2022-11-06T04:32:56;8.10;99.90
7296;DHT22;40758;54.038;11.684;2022-11-06T04:35:45;8.10;99.90
7296;DHT22;40758;54.038;11.684;2022-11-06T04:38:27;8.00;99.90
7296;DHT22;40758;54.038;11.684;2022-11-06T04:41:12;7.90;99.90
7296;DHT22;40758;54.038;11.684;2022-11-06T04:43:51;7.80;99.90
7296;DHT22;40758;54.038;11.684;2022-11-06T04:46:28;7.70;99.90
7296;DHT22;40758;54.038;11.684;2022-11-06T04:49:02;7.70;99.90
7296;DHT22;40758;54.038;11.684;2022-11-06T04:51:36;7.70;99.90
7296;DHT22;40758;54.038;11.684;2022-11-06T04:54:07;7.70;99.90
7296;DHT22;40758;54.038;11.684;2022-11-06T04:56:38;7.80;99.90
7296;DHT22;40758;54.038;11.684;2022-11-06T04:59:14;7.80;99.90
7296;DHT22;40758;54.038;11.684;2022-11-06T05:01:44;7.90;99.90
7296;DHT22;40758;54.038;11.684;2022-11-06T05:04:14;7.90;99.90
7296;DHT22;40758;54.038;11.684;2022-11-06T05:06:44;8.00;99.90
7296;DHT22;40758;54.038;11.684;2022-11-06T05:09:13;8.00;99.90
7296;DHT22;40758;54.038;11.684;2022-11-06T05:11:42;8.00;99.90
7296;DHT22;40758;54.038;11.684;2022-11-06T05:14:11;8.00;99.90
7296;DHT22;40758;54.038;11.684;2022-11-06T05:16:39;8.00;99.90
7296;DHT22;40758;54.038;11.684;2022-11-06T05:19:09;8.10;99.90
7296;DHT22;40758;54.038;11.684;2022-11-06T05:21:38;8.10;99.90
7296;DHT22;40758;54.038;11.684;2022-11-06T05:24:25;8.10;99.90
7296;DHT22;40758;54.038;11.684;2022-11-06T05:26:57;8.20;99.90
7296;DHT22;40758;54.038;11.684;2022-11-06T05:29:27;8.20;99.90
7296;DHT22;40758;54.038;11.684;2022-11-06T05:31:55;8.20;99.90
7296;DHT22;40758;54.038;11.684;2022-11-06T05:34:24;8.20;99.90
7296;DHT22;40758;54.038;11.684;2022-11-06T05:36:53;8.30;99.90
7296;DHT22;40758;54.038;11.684;2022-11-06T05:39:22;8.30;99.90
7296;DHT22;40758;54.038;11.684;2022-11-06T05:41:53;8.30;99.90
7296;DHT22;40758;54.038;11.684;2022-11-06T05:44:22;8.40;99.90
7296;DHT22;40758;54.038;11.684;2022-11-06T05:46:50;8.50;99.90
7296;DHT22;40758;54.038;11.684;2022-11-06T05:49:19;8.50;99.90
7296;DHT22;40758;54.038;11.684;2022-11-06T05:51:48;8.50;99.90
7296;DHT22;40758;54.038;11.684;2022-11-06T05:54:17;8.50;99.90
7296;DHT22;40758;54.038;11.684;2022-11-06T05:56:46;8.60;99.90
7296;DHT22;40758;54.038;11.684;2022-11-06T05:59:16;8.70;99.90
7296;DHT22;40758;54.038;11.684;2022-11-06T06:01:45;8.80;99.90
7296;DHT22;40758;54.038;11.684;2022-11-06T06:04:14;8.80;99.90
7296;DHT22;40758;54.038;11.684;2022-11-06T06:06:43;8.90;99.90
7296;DHT22;40758;54.038;11.684;2022-11-06T06:09:12;9.00;99.90
7296;DHT22;40758;54.038;11.684;2022-11-06T06:11:42;9.10;99.90
7296;DHT22;40758;54.038;11.684;2022-11-06T06:14:11;9.10;99.90
7296;DHT22;40758;54.038;11.684;2022-11-06T06:16:41;9.10;99.90
7296;DHT22;40758;54.038;11.684;2022-11-06T06:19:10;9.20;99.90
7296;DHT22;40758;54.038;11.684;2022-11-06T06:21:39;9.10;99.90
7296;DHT22;40758;54.038;11.684;2022-11-06T06:24:08;9.00;99.90
7296;DHT22;40758;54.038;11.684;2022-11-06T06:26:37;8.90;99.90
7296;DHT22;40758;54.038;11.684;2022-11-06T06:29:06;8.80;99.90
7296;DHT22;40758;54.038;11.684;2022-11-06T06:31:35;8.80;99.90
7296;DHT22;40758;54.038;11.684;2022-11-06T06:34:05;8.70;99.90
7296;DHT22;40758;54.038;11.684;2022-11-06T06:36:34;8.70;99.90
7296;DHT22;40758;54.038;11.684;2022-11-06T06:39:03;8.70;99.90
7296;DHT22;40758;54.038;11.684;2022-11-06T06:41:32;8.70;99.90
7296;DHT22;40758;54.038;11.684;2022-11-06T06:44:01;8.70;99.90
7296;DHT22;40758;54.038;11.684;2022-11-06T06:46:30;8.80;99.90
7296;DHT22;40758;54.038;11.684;2022-11-06T06:49:02;8.80;99.90
7296;DHT22;40758;54.038;11.684;2022-11-06T06:51:32;8.90;99.90
7296;DHT22;40758;54.038;11.684;2022-11-06T06:54:01;8.90;99.90
7296;DHT22;40758;54.038;11.684;2022-11-06T06:56:30;9.00;99.90
7296;DHT22;40758;54.038;11.684;2022-11-06T06:59:00;9.00;99.90
7296;DHT22;40758;54.038;11.684;2022-11-06T07:01:29;9.10;99.90
7296;DHT22;40758;54.038;11.684;2022-11-06T07:03:58;9.20;99.90
7296;DHT22;40758;54.038;11.684;2022-11-06T07:06:32;9.20;99.90
7296;DHT22;40758;54.038;11.684;2022-11-06T07:09:00;9.20;99.90
7296;DHT22;40758;54.038;11.684;2022-11-06T07:11:29;9.30;99.90
7296;DHT22;40758;54.038;11.684;2022-11-06T07:13:58;9.40;99.90
7296;DHT22;40758;54.038;11.684;2022-11-06T07:16:27;9.50;99.90
7296;DHT22;40758;54.038;11.684;2022-11-06T07:18:58;9.50;99.90
7296;DHT22;40758;54.038;11.684;2022-11-06T07:21:28;9.40;99.90
7296;DHT22;40758;54.038;11.684;2022-11-06T07:23:58;9.50;99.90
7296;DHT22;40758;54.038;11.684;2022-11-06T07:26:27;9.50;99.90
7296;DHT22;40758;54.038;11.684;2022-11-06T07:28:56;9.50;99.90
7296;DHT22;40758;54.038;11.684;2022-11-06T07:31:25;9.50;99.90
7296;DHT22;40758;54.038;11.684;2022-11-06T07:33:57;9.60;99.90
7296;DHT22;40758;54.038;11.684;2022-11-06T07:36:29;9.60;99.90
7296;DHT22;40758;54.038;11.684;2022-11-06T07:39:05;9.60;99.90
7296;DHT22;40758;54.038;11.684;2022-11-06T07:41:34;9.60;99.90
7296;DHT22;40758;54.038;11.684;2022-11-06T07:44:04;9.60;99.90
7296;DHT22;40758;54.038;11.684;2022-11-06T07:46:34;9.70;99.90
7296;DHT22;40758;54.038;11.684;2022-11-06T07:49:03;9.70;99.90
7296;DHT22;40758;54.038;11.684;2022-11-06T07:51:32;9.70;99.90
7296;DHT22;40758;54.038;11.684;2022-11-06T07:54:01;9.70;99.90
7296;DHT22;40758;54.038;11.684;2022-11-06T07:56:31;9.60;99.90
7296;DHT22;40758;54.038;11.684;2022-11-06T07:59:00;9.50;99.90
7296;DHT22;40758;54.038;11.684;2022-11-06T08:01:30;9.50;99.90
7296;DHT22;40758;54.038;11.684;2022-11-06T08:03:59;9.50;99.90
7296;DHT22;40758;54.038;11.684;2022-11-06T08:06:28;9.50;99.90
7296;DHT22;40758;54.038;11.684;2022-11-06T08:08:58;9.60;99.90
7296;DHT22;40758;54.038;11.684;2022-11-06T08:11:26;9.70;99.90
7296;DHT22;40758;54.038;11.684;2022-11-06T08:13:58;9.70;99.90
7296;DHT22;40758;54.038;11.684;2022-11-06T08:16:27;9.80;99.90
7296;DHT22;40758;54.038;11.684;2022-11-06T08:18:57;9.80;99.90
7296;DHT22;40758;54.038;11.684;2022-11-06T08:21:26;9.70;99.90
7296;DHT22;40758;54.038;11.684;2022-11-06T08:23:55;9.70;99.90
7296;DHT22;40758;54.038;11.684;2022-11-06T08:26:24;9.70;99.90
7296;DHT22;40758;54.038;11.684;2022-11-06T08:28:53;9.70;99.90
7296;DHT22;40758;54.038;11.684;2022-11-06T08:31:25;9.60;99.90
7296;DHT22;40758;54.038;11.684;2022-11-06T08:33:54;9.70;99.90
7296;DHT22;40758;54.038;11.684;2022-11-06T08:36:24;9.70;99.90
7296;DHT22;40758;54.038;11.684;2022-11-06T08:38:53;9.80;99.90
7296;DHT22;40758;54.038;11.684;2022-11-06T08:41:22;9.80;99.90
7296;DHT22;40758;54.038;11.684;2022-11-06T08:43:51;9.80;99.90
7296;DHT22;40758;54.038;11.684;2022-11-06T08:46:21;9.80;99.90
7296;DHT22;40758;54.038;11.684;2022-11-06T08:48:51;9.90;99.90
7296;DHT22;40758;54.038;11.684;2022-11-06T08:51:20;9.80;99.90
7296;DHT22;40758;54.038;11.684;2022-11-06T08:53:49;9.80;99.90
7296;DHT22;40758;54.038;11.684;2022-11-06T08:56:19;9.70;99.90
7296;DHT22;40758;54.038;11.684;2022-11-06T08:58:48;9.70;99.90
7296;DHT22;40758;54.038;11.684;2022-11-06T09:01:21;9.80;99.90
7296;DHT22;40758;54.038;11.684;2022-11-06T09:03:52;9.90;99.90
7296;DHT22;40758;54.038;11.684;2022-11-06T09:06:21;9.90;99.90
7296;DHT22;40758;54.038;11.684;2022-11-06T09:08:50;9.80;99.90
7296;DHT22;40758;54.038;11.684;2022-11-06T09:11:20;9.80;99.90
7296;DHT22;40758;54.038;11.684;2022-11-06T09:13:51;9.80;99.90
7296;DHT22;40758;54.038;11.684;2022-11-06T09:16:21;9.90;99.90
7296;DHT22;40758;54.038;11.684;2022-11-06T09:18:53;10.00;99.90
7296;DHT22;40758;54.038;11.684;2022-11-06T09:21:22;10.00;99.90
7296;DHT22;40758;54.038;11.684;2022-11-06T09:23:52;10.10;99.90
7296;DHT22;40758;54.038;11.684;2022-11-06T09:26:23;10.20;99.90
7296;DHT22;40758;54.038;11.684;2022-11-06T09:28:52;10.20;99.90
7296;DHT22;40758;54.038;11.684;2022-11-06T09:31:25;10.20;99.90
7296;DHT22;40758;54.038;11.684;2022-11-06T09:34:02;10.30;99.90
7296;DHT22;40758;54.038;11.684;2022-11-06T09:36:32;10.30;99.90
7296;DHT22;40758;54.038;11.684;2022-11-06T09:39:04;10.40;99.90
7296;DHT22;40758;54.038;11.684;2022-11-06T09:41:40;10.30;99.90
7296;DHT22;40758;54.038;11.684;2022-11-06T09:44:34;10.50;99.90
7296;DHT22;40758;54.038;11.684;2022-11-06T09:47:17;10.60;99.90
7296;DHT22;40758;54.038;11.684;2022-11-06T09:49:53;10.70;99.90
7296;DHT22;40758;54.038;11.684;2022-11-06T09:52:30;10.70;99.90
7296;DHT22;40758;54.038;11.684;2022-11-06T09:55:09;10.50;99.90
7296;DHT22;40758;54.038;11.684;2022-11-06T09:57:44;10.40;99.90
7296;DHT22;40758;54.038;11.684;2022-11-06T10:00:18;10.20;99.90
7296;DHT22;40758;54.038;11.684;2022-11-06T10:02:49;10.10;99.90
7296;DHT22;40758;54.038;11.684;2022-11-06T10:05:25;10.00;99.90
7296;DHT22;40758;54.038;11.684;2022-11-06T10:07:57;10.00;99.90
7296;DHT22;40758;54.038;11.684;2022-11-06T10:10:33;10.10;99.90
7296;DHT22;40758;54.038;11.684;2022-11-06T10:16:27;10.00;99.90
7296;DHT22;40758;54.038;11.684;2022-11-06T10:19:10;10.20;99.90
7296;DHT22;40758;54.038;11.684;2022-11-06T10:22:00;10.20;99.90
7296;DHT22;40758;54.038;11.684;2022-11-06T10:24:41;10.30;99.90
7296;DHT22;40758;54.038;11.684;2022-11-06T10:27:15;10.50;99.90
7296;DHT22;40758;54.038;11.684;2022-11-06T10:30:03;10.50;99.90
7296;DHT22;40758;54.038;11.684;2022-11-06T10:32:54;10.60;99.90
7296;DHT22;40758;54.038;11.684;2022-11-06T10:35:54;10.50;99.90
7296;DHT22;40758;54.038;11.684;2022-11-06T10:38:35;10.50;99.90
7296;DHT22;40758;54.038;11.684;2022-11-06T10:41:14;10.50;99.90
7296;DHT22;40758;54.038;11.684;2022-11-06T10:43:49;10.60;99.90
7296;DHT22;40758;54.038;11.684;2022-11-06T10:46:26;10.60;99.90
7296;DHT22;40758;54.038;11.684;2022-11-06T10:49:04;10.60;99.90
7296;DHT22;40758;54.038;11.684;2022-11-06T10:51:56;10.80;99.90
7296;DHT22;40758;54.038;11.684;2022-11-06T10:55:23;11.00;99.90
7296;DHT22;40758;54.038;11.684;2022-11-06T10:58:22;11.00;99.90
7296;DHT22;40758;54.038;11.684;2022-11-06T11:01:00;11.20;99.90
7296;DHT22;40758;54.038;11.684;2022-11-06T11:03:33;11.20;99.90
7296;DHT22;40758;54.038;11.684;2022-11-06T11:06:04;11.10;99.90
7296;DHT22;40758;54.038;11.684;2022-11-06T11:08:36;11.10;99.90
7296;DHT22;40758;54.038;11.684;2022-11-06T11:11:23;11.10;99.90
7296;DHT22;40758;54.038;11.684;2022-11-06T11:14:14;11.20;99.90
7296;DHT22;40758;54.038;11.684;2022-11-06T11:16:50;11.70;99.90
7296;DHT22;40758;54.038;11.684;2022-11-06T11:19:26;12.00;99.90
7296;DHT22;40758;54.038;11.684;2022-11-06T11:22:03;12.10;99.90
7296;DHT22;40758;54.038;11.684;2022-11-06T11:24:58;12.10;99.90
7296;DHT22;40758;54.038;11.684;2022-11-06T11:27:34;12.60;99.90
7296;DHT22;40758;54.038;11.684;2022-11-06T11:30:06;12.50;99.90
7296;DHT22;40758;54.038;11.684;2022-11-06T11:32:48;12.30;99.90
7296;DHT22;40758;54.038;11.684;2022-11-06T11:35:20;12.50;99.90
7296;DHT22;40758;54.038;11.684;2022-11-06T11:38:04;12.60;99.90
7296;DHT22;40758;54.038;11.684;2022-11-06T11:40:38;12.80;99.90
7296;DHT22;40758;54.038;11.684;2022-11-06T11:43:23;13.40;99.90
7296;DHT22;40758;54.038;11.684;2022-11-06T11:46:15;14.00;99.90
7296;DHT22;40758;54.038;11.684;2022-11-06T11:48:49;13.90;99.90
7296;DHT22;40758;54.038;11.684;2022-11-06T11:54:06;14.50;99.90
7296;DHT22;40758;54.038;11.684;2022-11-06T11:56:49;14.80;99.90
7296;DHT22;40758;54.038;11.684;2022-11-06T11:59:42;13.70;99.90
7296;DHT22;40758;54.038;11.684;2022-11-06T12:02:14;13.10;99.90
7296;DHT22;40758;54.038;11.684;2022-11-06T12:04:56;12.60;99.90
7296;DHT22;40758;54.038;11.684;2022-11-06T12:07:30;12.70;99.90
7296;DHT22;40758;54.038;11.684;2022-11-06T12:10:11;13.50;99.90
7296;DHT22;40758;54.038;11.684;2022-11-06T12:12:50;14.50;99.90
7296;DHT22;40758;54.038;11.684;2022-11-06T12:15:24;14.90;99.90
7296;DHT22;40758;54.038;11.684;2022-11-06T12:18:00;14.80;99.90
7296;DHT22;40758;54.038;11.684;2022-11-06T12:20:40;13.90;99.90
7296;DHT22;40758;54.038;11.684;2022-11-06T12:23:17;13.70;99.90
7296;DHT22;40758;54.038;11.684;2022-11-06T12:25:58;13.50;99.90
7296;DHT22;40758;54.038;11.684;2022-11-06T12:28:35;13.30;99.90
7296;DHT22;40758;54.038;11.684;2022-11-06T12:31:16;13.50;99.90
7296;DHT22;40758;54.038;11.684;2022-11-06T12:33:55;13.40;99.90
7296;DHT22;40758;54.038;11.684;2022-11-06T12:36:33;13.10;99.90
7296;DHT22;40758;54.038;11.684;2022-11-06T12:39:11;12.90;99.90
7296;DHT22;40758;54.038;11.684;2022-11-06T12:41:47;13.00;99.90
7296;DHT22;40758;54.038;11.684;2022-11-06T12:44:17;13.00;99.90
7296;DHT22;40758;54.038;11.684;2022-11-06T12:46:52;13.00;99.90
7296;DHT22;40758;54.038;11.684;2022-11-06T12:49:58;13.30;99.90
7296;DHT22;40758;54.038;11.684;2022-11-06T12:53:10;13.50;99.90
7296;DHT22;40758;54.038;11.684;2022-11-06T12:55:51;13.40;99.90
7296;DHT22;40758;54.038;11.684;2022-11-06T12:58:38;13.00;99.90
7296;DHT22;40758;54.038;11.684;2022-11-06T13:01:27;13.10;99.90
7296;DHT22;40758;54.038;11.684;2022-11-06T13:04:24;13.10;99.90
7296;DHT22;40758;54.038;11.684;2022-11-06T13:07:27;13.20;99.90
7296;DHT22;40758;54.038;11.684;2022-11-06T13:10:12;13.40;99.90
7296;DHT22;40758;54.038;11.684;2022-11-06T13:13:01;13.30;99.90
7296;DHT22;40758;54.038;11.684;2022-11-06T13:15:53;13.10;99.90
7296;DHT22;40758;54.038;11.684;2022-11-06T13:18:27;13.10;99.90
7296;DHT22;40758;54.038;11.684;2022-11-06T13:21:05;12.90;99.90
7296;DHT22;40758;54.038;11.684;2022-11-06T13:23:43;12.80;99.90
7296;DHT22;40758;54.038;11.684;2022-11-06T13:26:23;12.80;99.90
7296;DHT22;40758;54.038;11.684;2022-11-06T13:29:02;12.80;99.90
7296;DHT22;40758;54.038;11.684;2022-11-06T13:31:36;12.80;99.90
7296;DHT22;40758;54.038;11.684;2022-11-06T13:34:14;12.90;99.90
7296;DHT22;40758;54.038;11.684;2022-11-06T13:36:51;12.90;99.90
7296;DHT22;40758;54.038;11.684;2022-11-06T13:39:25;12.90;99.90
7296;DHT22;40758;54.038;11.684;2022-11-06T13:42:00;12.90;99.90
7296;DHT22;40758;54.038;11.684;2022-11-06T13:44:32;12.90;99.90
7296;DHT22;40758;54.038;11.684;2022-11-06T13:47:07;13.00;99.90
7296;DHT22;40758;54.038;11.684;2022-11-06T13:49:46;13.10;99.90
7296;DHT22;40758;54.038;11.684;2022-11-06T13:52:31;13.10;99.90
7296;DHT22;40758;54.038;11.684;2022-11-06T13:55:11;13.10;99.90
7296;DHT22;40758;54.038;11.684;2022-11-06T13:58:19;13.00;99.90
7296;DHT22;40758;54.038;11.684;2022-11-06T14:01:10;12.90;99.90
7296;DHT22;40758;54.038;11.684;2022-11-06T14:04:12;12.80;99.90
7296;DHT22;40758;54.038;11.684;2022-11-06T14:07:04;12.80;99.90
7296;DHT22;40758;54.038;11.684;2022-11-06T14:09:41;12.70;99.90
7296;DHT22;40758;54.038;11.684;2022-11-06T14:12:17;12.60;99.90
7296;DHT22;40758;54.038;11.684;2022-11-06T14:14:49;12.40;99.90
7296;DHT22;40758;54.038;11.684;2022-11-06T14:17:39;12.20;99.90
7296;DHT22;40758;54.038;11.684;2022-11-06T14:20:28;12.10;99.90
7296;DHT22;40758;54.038;11.684;2022-11-06T14:26:35;11.90;99.90
7296;DHT22;40758;54.038;11.684;2022-11-06T14:32:47;12.10;99.90
7296;DHT22;40758;54.038;11.684;2022-11-06T14:35:47;12.40;99.90
7296;DHT22;40758;54.038;11.684;2022-11-06T14:38:36;12.50;99.90
7296;DHT22;40758;54.038;11.684;2022-11-06T14:44:40;12.30;99.90
7296;DHT22;40758;54.038;11.684;2022-11-06T14:47:24;12.00;99.90
7296;DHT22;40758;54.038;11.684;2022-11-06T14:50:00;11.70;99.90
7296;DHT22;40758;54.038;11.684;2022-11-06T14:52:41;11.50;99.90
7296;DHT22;40758;54.038;11.684;2022-11-06T14:55:27;11.30;99.90
7296;DHT22;40758;54.038;11.684;2022-11-06T14:58:12;11.10;99.90
7296;DHT22;40758;54.038;11.684;2022-11-06T15:00:49;10.90;99.90
7296;DHT22;40758;54.038;11.684;2022-11-06T15:03:25;10.80;99.90
7296;DHT22;40758;54.038;11.684;2022-11-06T15:06:04;10.70;99.90
7296;DHT22;40758;54.038;11.684;2022-11-06T15:08:58;10.60;99.90
7296;DHT22;40758;54.038;11.684;2022-11-06T15:11:56;10.50;99.90
7296;DHT22;40758;54.038;11.684;2022-11-06T15:15:03;10.40;99.90
7296;DHT22;40758;54.038;11.684;2022-11-06T15:17:43;10.40;99.90
7296;DHT22;40758;54.038;11.684;2022-11-06T15:20:22;10.20;99.90
7296;DHT22;40758;54.038;11.684;2022-11-06T15:23:02;10.20;99.90
7296;DHT22;40758;54.038;11.684;2022-11-06T15:25:53;10.20;99.90
7296;DHT22;40758;54.038;11.684;2022-11-06T15:28:33;10.20;99.90
7296;DHT22;40758;54.038;11.684;2022-11-06T15:31:15;10.20;99.90
7296;DHT22;40758;54.038;11.684;2022-11-06T15:33:58;10.20;99.90
7296;DHT22;40758;54.038;11.684;2022-11-06T15:36:33;10.20;99.90
7296;DHT22;40758;54.038;11.684;2022-11-06T15:39:22;10.20;99.90
7296;DHT22;40758;54.038;11.684;2022-11-06T15:42:00;10.10;99.90
7296;DHT22;40758;54.038;11.684;2022-11-06T15:44:30;10.00;99.90
7296;DHT22;40758;54.038;11.684;2022-11-06T15:47:00;10.00;99.90
7296;DHT22;40758;54.038;11.684;2022-11-06T15:49:29;9.90;99.90
7296;DHT22;40758;54.038;11.684;2022-11-06T15:52:00;9.80;99.90
7296;DHT22;40758;54.038;11.684;2022-11-06T15:54:36;9.90;99.90
7296;DHT22;40758;54.038;11.684;2022-11-06T15:57:13;9.90;99.90
7296;DHT22;40758;54.038;11.684;2022-11-06T15:59:50;9.90;99.90
7296;DHT22;40758;54.038;11.684;2022-11-06T16:02:45;9.90;99.90
7296;DHT22;40758;54.038;11.684;2022-11-06T16:05:16;9.90;99.90
7296;DHT22;40758;54.038;11.684;2022-11-06T16:07:47;10.00;99.90
7296;DHT22;40758;54.038;11.684;2022-11-06T16:10:20;10.00;99.90
7296;DHT22;40758;54.038;11.684;2022-11-06T16:12:50;10.00;99.90
7296;DHT22;40758;54.038;11.684;2022-11-06T16:15:46;10.10;99.90
7296;DHT22;40758;54.038;11.684;2022-11-06T16:18:23;10.10;99.90
7296;DHT22;40758;54.038;11.684;2022-11-06T16:20:57;10.10;99.90
7296;DHT22;40758;54.038;11.684;2022-11-06T16:23:31;10.00;99.90
7296;DHT22;40758;54.038;11.684;2022-11-06T16:26:07;9.90;99.90
7296;DHT22;40758;54.038;11.684;2022-11-06T16:28:41;9.90;99.90
7296;DHT22;40758;54.038;11.684;2022-11-06T16:31:14;9.90;99.90
7296;DHT22;40758;54.038;11.684;2022-11-06T16:33:54;9.90;99.90
7296;DHT22;40758;54.038;11.684;2022-11-06T16:36:26;9.90;99.90
7296;DHT22;40758;54.038;11.684;2022-11-06T16:39:32;10.00;99.90
7296;DHT22;40758;54.038;11.684;2022-11-06T16:42:25;10.00;99.90
7296;DHT22;40758;54.038;11.684;2022-11-06T16:45:15;10.10;99.90
7296;DHT22;40758;54.038;11.684;2022-11-06T16:50:55;10.10;99.90
7296;DHT22;40758;54.038;11.684;2022-11-06T16:53:27;10.10;99.90
7296;DHT22;40758;54.038;11.684;2022-11-06T16:56:00;10.10;99.90
7296;DHT22;40758;54.038;11.684;2022-11-06T16:58:33;10.00;99.90